createdAt,value
2023-03-28T00:02:10.152Z,94814.88
2023-03-28T00:04:37.589Z,94815.38
2023-03-28T00:07:05.488Z,94819.25
2023-03-28T00:09:32.946Z,94813.94
2023-03-28T00:11:59.628Z,94825.22
2023-03-28T00:14:26.337Z,94821.53
2023-03-28T00:16:53.014Z,94831.81
2023-03-28T00:19:25.492Z,94835.00
2023-03-28T00:21:51.992Z,94839.75
2023-03-28T00:24:21.495Z,94831.28
2023-03-28T00:26:49.730Z,94834.16
2023-03-28T00:29:21.377Z,94837.91
2023-03-28T00:31:50.321Z,94840.78
2023-03-28T00:34:18.142Z,94843.38
2023-03-28T00:36:45.186Z,94852.00
2023-03-28T00:39:13.449Z,94840.91
2023-03-28T00:41:43.514Z,94851.53
2023-03-28T00:44:41.560Z,94858.88
2023-03-28T00:47:17.930Z,94855.69
2023-03-28T00:49:49.610Z,94849.06
2023-03-28T00:52:18.237Z,94856.44
2023-03-28T00:54:46.348Z,94858.09
2023-03-28T00:57:16.481Z,94851.28
2023-03-28T00:59:44.137Z,94864.50
2023-03-28T01:02:11.859Z,94872.19
2023-03-28T01:05:00.859Z,94872.22
2023-03-28T01:07:33.316Z,94864.28
2023-03-28T01:10:01.556Z,94867.94
2023-03-28T01:12:28.261Z,94860.03
2023-03-28T01:14:56.159Z,94875.31
2023-03-28T01:17:25.786Z,94873.72
2023-03-28T01:20:20.808Z,94881.63
2023-03-28T01:22:56.381Z,94876.91
2023-03-28T01:25:41.198Z,94883.16
2023-03-28T01:28:31.453Z,94878.09
2023-03-28T01:31:10.709Z,94879.88
2023-03-28T01:34:41.016Z,94875.59
2023-03-28T01:37:32.592Z,94884.38
2023-03-28T01:40:16.388Z,94884.63
2023-03-28T01:43:09.882Z,94881.03
2023-03-28T01:45:58.193Z,94888.94
2023-03-28T01:48:55.536Z,94884.22
2023-03-28T01:51:59.706Z,94883.59
2023-03-28T01:55:08.664Z,94889.41
2023-03-28T01:57:46.212Z,94895.25
2023-03-28T02:00:25.640Z,94893.59
2023-03-28T02:03:25.127Z,94895.72
2023-03-28T02:05:58.185Z,94879.09
2023-03-28T02:08:32.494Z,94886.72
2023-03-28T02:11:25.563Z,94876.47
2023-03-28T02:14:23.817Z,94884.56
2023-03-28T02:17:04.840Z,94889.81
2023-03-28T02:19:59.520Z,94889.28
2023-03-28T02:22:51.351Z,94896.63
2023-03-28T02:25:46.153Z,94895.28
2023-03-28T02:28:44.318Z,94889.16
2023-03-28T02:31:46.521Z,94891.25
2023-03-28T02:34:13.261Z,94893.81
2023-03-28T02:37:05.600Z,94893.28
2023-03-28T02:40:03.318Z,94894.06
2023-03-28T02:42:56.168Z,94894.56
2023-03-28T02:45:46.107Z,94891.38
2023-03-28T02:48:37.601Z,94889.78
2023-03-28T02:51:16.232Z,94890.88
2023-03-28T02:53:48.927Z,94886.97
2023-03-28T02:56:43.206Z,94900.69
2023-03-28T02:59:23.574Z,94892.16
2023-03-28T03:01:50.446Z,94889.03
2023-03-28T03:04:17.452Z,94895.91
2023-03-28T03:06:48.467Z,94902.03
2023-03-28T03:09:17.971Z,94896.00
2023-03-28T03:11:44.612Z,94897.56
2023-03-28T03:14:12.212Z,94894.38
2023-03-28T03:16:38.979Z,94897.44
2023-03-28T03:19:07.659Z,94901.19
2023-03-28T03:21:34.406Z,94904.38
2023-03-28T03:24:01.084Z,94905.19
2023-03-28T03:26:27.774Z,94908.59
2023-03-28T03:29:00.898Z,94901.97
2023-03-28T03:31:28.498Z,94901.41
2023-03-28T03:34:13.956Z,94897.44
2023-03-28T03:36:46.271Z,94906.63
2023-03-28T03:39:13.312Z,94901.03
2023-03-28T03:41:39.935Z,94900.00
2023-03-28T03:44:06.655Z,94903.75
2023-03-28T03:46:33.290Z,94898.72
2023-03-28T03:49:00.038Z,94901.84
2023-03-28T03:51:26.718Z,94904.97
2023-03-28T03:53:55.087Z,94910.47
2023-03-28T03:56:29.769Z,94910.06
2023-03-28T03:58:57.997Z,94912.75
2023-03-28T04:01:32.256Z,94906.94
2023-03-28T04:04:11.919Z,94916.13
2023-03-28T04:06:59.163Z,94912.69
2023-03-28T04:09:29.221Z,94917.97
2023-03-28T04:12:01.796Z,94919.44
2023-03-28T04:14:31.354Z,94918.38
2023-03-28T04:17:16.809Z,94916.25
2023-03-28T04:19:43.906Z,94916.28
2023-03-28T04:22:13.034Z,94917.59
2023-03-28T04:24:46.239Z,94916.19
2023-03-28T04:27:26.254Z,94922.72
2023-03-28T04:29:56.417Z,94922.41
2023-03-28T04:32:49.567Z,94921.53
2023-03-28T04:35:24.262Z,94926.56
2023-03-28T04:37:53.885Z,94931.03
2023-03-28T04:40:24.268Z,94938.16
2023-03-28T04:42:59.863Z,94940.31
2023-03-28T04:45:35.171Z,94942.44
2023-03-28T04:48:12.227Z,94958.81
2023-03-28T04:50:39.040Z,94951.78
2023-03-28T04:53:05.952Z,94952.34
2023-03-28T04:55:33.084Z,94948.72
2023-03-28T04:58:07.045Z,94947.44
2023-03-28T05:00:33.831Z,94959.56
2023-03-28T05:03:06.770Z,94957.47
2023-03-28T05:05:41.413Z,94961.47
2023-03-28T05:08:13.021Z,94960.69
2023-03-28T05:10:40.636Z,94966.75
2023-03-28T05:13:08.674Z,94967.47
2023-03-28T05:15:46.097Z,94971.38
2023-03-28T05:18:25.903Z,94974.81
2023-03-28T05:20:52.867Z,94985.44
2023-03-28T05:23:19.687Z,94977.44
2023-03-28T05:25:51.958Z,94979.03
2023-03-28T05:28:19.097Z,94976.53
2023-03-28T05:30:50.043Z,94967.41
2023-03-28T05:33:16.955Z,94979.75
2023-03-28T05:35:45.047Z,94985.03
2023-03-28T05:38:11.737Z,94986.63
2023-03-28T05:40:38.477Z,94986.19
2023-03-28T05:43:05.452Z,94985.53
2023-03-28T05:45:33.371Z,94983.44
2023-03-28T05:48:08.192Z,94990.72
2023-03-28T05:50:36.469Z,94995.03
2023-03-28T05:53:06.569Z,94992.47
2023-03-28T05:55:35.565Z,95000.91
2023-03-28T05:58:03.086Z,95009.25
2023-03-28T06:00:37.213Z,95007.41
2023-03-28T06:03:04.796Z,95020.13
2023-03-28T06:05:35.877Z,95026.03
2023-03-28T06:08:09.423Z,95012.22
2023-03-28T06:10:36.912Z,95015.00
2023-03-28T06:13:32.728Z,95022.81
2023-03-28T06:15:59.591Z,95019.47
2023-03-28T06:18:32.112Z,95024.28
2023-03-28T06:20:59.224Z,95031.03
2023-03-28T06:23:26.060Z,95031.34
2023-03-28T06:25:52.968Z,95034.66
2023-03-28T06:28:21.179Z,95037.84
2023-03-28T06:31:20.185Z,95040.63
2023-03-28T06:33:47.744Z,95033.34
2023-03-28T06:36:17.551Z,95038.19
2023-03-28T06:38:44.802Z,95035.66
2023-03-28T06:41:11.580Z,95033.41
2023-03-28T06:43:38.403Z,95040.03
2023-03-28T06:46:09.691Z,95038.22
2023-03-28T06:48:42.495Z,95040.00
2023-03-28T06:51:24.432Z,95044.78
2023-03-28T06:53:51.554Z,95052.59
2023-03-28T06:56:23.759Z,95063.16
2023-03-28T06:58:50.491Z,95061.84
2023-03-28T07:01:22.340Z,95064.88
2023-03-28T07:03:59.640Z,95061.47
2023-03-28T07:06:27.889Z,95061.44
2023-03-28T07:08:57.145Z,95071.13
2023-03-28T07:11:32.692Z,95071.66
2023-03-28T07:13:59.648Z,95077.72
2023-03-28T07:16:26.359Z,95083.81
2023-03-28T07:18:53.045Z,95085.53
2023-03-28T07:21:24.295Z,95089.47
2023-03-28T07:23:54.586Z,95091.41
2023-03-28T07:26:27.664Z,95091.00
2023-03-28T07:28:57.673Z,95105.06
2023-03-28T07:31:25.865Z,95100.56
2023-03-28T07:33:54.902Z,95107.19
2023-03-28T07:36:22.090Z,95097.63
2023-03-28T07:38:54.789Z,95105.81
2023-03-28T07:41:22.766Z,95115.44
2023-03-28T07:43:49.682Z,95113.53
2023-03-28T07:46:16.643Z,95126.53
2023-03-28T07:48:45.606Z,95120.91
2023-03-28T07:51:13.045Z,95125.78
2023-03-28T07:53:39.970Z,95124.75
2023-03-28T07:56:12.156Z,95125.63
2023-03-28T07:59:04.436Z,95130.41
2023-03-28T08:01:32.091Z,95134.91
2023-03-28T08:04:03.104Z,95139.19
2023-03-28T08:06:41.744Z,95132.63
2023-03-28T08:09:12.095Z,95137.94
2023-03-28T08:11:43.180Z,95137.41
2023-03-28T08:14:15.439Z,95137.38
2023-03-28T08:16:42.800Z,95142.13
2023-03-28T08:19:11.668Z,95139.69
2023-03-28T08:22:02.736Z,95135.53
2023-03-28T08:24:36.129Z,95137.28
2023-03-28T08:27:18.865Z,95143.06
2023-03-28T08:29:48.695Z,95140.00
2023-03-28T08:32:16.228Z,95141.47
2023-03-28T08:34:43.535Z,95140.66
2023-03-28T08:37:16.427Z,95142.09
2023-03-28T08:39:47.437Z,95129.69
2023-03-28T08:42:40.191Z,95144.56
2023-03-28T08:45:18.743Z,95143.09
2023-03-28T08:48:14.167Z,95143.31
2023-03-28T08:51:06.209Z,95142.66
2023-03-28T08:53:44.073Z,95150.38
2023-03-28T08:56:15.530Z,95147.38
2023-03-28T08:59:06.403Z,95141.97
2023-03-28T09:01:34.218Z,95145.25
2023-03-28T09:04:02.151Z,95144.38
2023-03-28T09:06:39.943Z,95145.78
2023-03-28T09:09:30.089Z,95147.53
2023-03-28T09:12:31.501Z,95144.09
2023-03-28T09:15:16.434Z,95148.16
2023-03-28T09:18:01.434Z,95152.59
2023-03-28T09:20:49.246Z,95145.81
2023-03-28T09:23:43.447Z,95145.50
2023-03-28T09:26:24.524Z,95153.22
2023-03-28T09:29:18.940Z,95147.00
2023-03-28T09:31:54.478Z,95154.41
2023-03-28T09:34:27.507Z,95159.56
2023-03-28T09:37:11.403Z,95165.41
2023-03-28T09:39:49.199Z,95163.66
2023-03-28T09:42:38.174Z,95159.88
2023-03-28T09:45:35.653Z,95154.97
2023-03-28T09:48:27.365Z,95144.31
2023-03-28T09:50:58.080Z,95149.69
2023-03-28T09:53:30.011Z,95141.09
2023-03-28T09:56:06.287Z,95137.88
2023-03-28T09:59:05.260Z,95143.66
2023-03-28T10:01:45.346Z,95150.75
2023-03-28T10:04:37.831Z,95150.78
2023-03-28T10:07:34.022Z,95149.34
2023-03-28T10:10:25.140Z,95137.81
2023-03-28T10:13:04.259Z,95137.53
2023-03-28T10:15:42.393Z,95139.41
2023-03-28T10:18:29.888Z,95132.00
2023-03-28T10:21:21.955Z,95131.19
2023-03-28T10:24:06.557Z,95145.09
2023-03-28T10:26:34.187Z,95139.22
2023-03-28T10:29:07.645Z,95138.47
2023-03-28T10:31:38.892Z,95137.44
2023-03-28T10:34:35.134Z,95132.41
2023-03-28T10:37:27.845Z,95136.50
2023-03-28T10:40:20.849Z,95139.22
2023-03-28T10:43:18.980Z,95129.53
2023-03-28T10:46:13.187Z,95130.34
2023-03-28T10:49:17.090Z,95127.44
2023-03-28T10:51:50.060Z,95129.44
2023-03-28T10:54:28.953Z,95117.75
2023-03-28T10:57:11.818Z,95115.53
2023-03-28T10:59:51.385Z,95117.25
2023-03-28T11:02:21.695Z,95107.84
2023-03-28T11:04:57.718Z,95098.50
2023-03-28T11:07:30.768Z,95107.69
2023-03-28T11:10:44.325Z,95109.38
2023-03-28T11:13:23.192Z,95108.41
2023-03-28T11:16:03.844Z,95098.91
2023-03-28T11:18:53.119Z,95102.38
2023-03-28T11:21:24.692Z,95106.06
2023-03-28T11:24:19.125Z,95100.91
2023-03-28T11:27:31.367Z,95100.69
2023-03-28T11:30:20.996Z,95097.94
2023-03-28T11:33:11.282Z,95095.16
2023-03-28T11:35:52.779Z,95074.63
2023-03-28T11:38:47.540Z,95078.72
2023-03-28T11:41:19.701Z,95078.03
2023-03-28T11:44:41.542Z,95079.13
2023-03-28T11:47:28.243Z,95091.91
2023-03-28T11:50:15.366Z,95084.84
2023-03-28T11:53:18.632Z,95079.84
2023-03-28T11:56:06.758Z,95071.91
2023-03-28T11:59:12.726Z,95071.44
2023-03-28T12:01:44.770Z,95071.28
2023-03-28T12:04:22.591Z,95067.44
2023-03-28T12:07:08.067Z,95065.34
2023-03-28T12:10:03.408Z,95056.88
2023-03-28T12:12:35.522Z,95057.13
2023-03-28T12:15:10.776Z,95052.63
2023-03-28T12:18:12.619Z,95058.81
2023-03-28T12:20:49.447Z,95044.78
2023-03-28T12:23:44.932Z,95039.59
2023-03-28T12:26:36.244Z,95028.91
2023-03-28T12:29:16.177Z,95026.78
2023-03-28T12:31:50.364Z,95030.88
2023-03-28T12:34:56.169Z,95022.31
2023-03-28T12:38:08.488Z,95028.97
2023-03-28T12:40:47.163Z,95025.22
2023-03-28T12:43:17.316Z,95022.38
2023-03-28T12:45:53.311Z,95023.94
2023-03-28T12:48:42.388Z,95013.50
2023-03-28T12:51:17.845Z,95014.34
2023-03-28T12:53:59.984Z,95013.59
2023-03-28T12:56:27.211Z,95014.38
2023-03-28T12:58:54.175Z,95001.22
2023-03-28T13:01:34.418Z,94994.97
2023-03-28T13:04:43.767Z,94984.78
2023-03-28T13:08:02.347Z,94992.00
2023-03-28T13:11:02.692Z,95000.19
2023-03-28T13:13:48.264Z,94999.53
2023-03-28T13:16:37.210Z,94993.50
2023-03-28T13:19:10.792Z,94988.03
2023-03-28T13:21:56.509Z,94990.41
2023-03-28T13:24:26.204Z,94987.25
2023-03-28T13:26:54.398Z,94984.41
2023-03-28T13:29:21.223Z,94985.72
2023-03-28T13:31:48.141Z,94981.16
2023-03-28T13:34:25.166Z,94984.28
2023-03-28T13:36:55.458Z,94975.75
2023-03-28T13:39:26.212Z,94976.22
2023-03-28T13:41:56.297Z,94973.03
2023-03-28T13:44:42.752Z,94967.25
2023-03-28T13:47:17.860Z,94975.84
2023-03-28T13:49:59.889Z,94974.59
2023-03-28T13:52:26.586Z,94968.44
2023-03-28T13:55:00.840Z,94956.88
2023-03-28T13:57:27.923Z,94955.13
2023-03-28T14:00:00.872Z,94957.72
2023-03-28T14:02:33.106Z,94948.88
2023-03-28T14:05:12.039Z,94958.38
2023-03-28T14:07:38.991Z,94947.78
2023-03-28T14:10:29.567Z,94953.50
2023-03-28T14:13:08.365Z,94952.38
2023-03-28T14:15:39.319Z,94946.41
2023-03-28T14:18:12.266Z,94950.59
2023-03-28T14:20:40.358Z,94948.03
2023-03-28T14:23:07.327Z,94949.50
2023-03-28T14:25:34.368Z,94940.34
2023-03-28T14:28:08.625Z,94938.91
2023-03-28T14:30:41.150Z,94931.53
2023-03-28T14:33:13.491Z,94933.06
2023-03-28T14:35:42.437Z,94928.72
2023-03-28T14:38:14.915Z,94928.25
2023-03-28T14:40:44.047Z,94922.66
2023-03-28T14:43:12.173Z,94913.91
2023-03-28T14:45:45.727Z,94911.31
2023-03-28T14:48:17.176Z,94904.72
2023-03-28T14:50:45.990Z,94912.31
2023-03-28T14:53:22.310Z,94907.28
2023-03-28T14:55:51.082Z,94905.28
2023-03-28T14:58:22.591Z,94889.16
2023-03-28T15:00:53.239Z,94896.50
2023-03-28T15:03:23.288Z,94892.47
2023-03-28T15:05:52.068Z,94894.53
2023-03-28T15:08:34.142Z,94885.81
2023-03-28T15:11:29.314Z,94879.97
2023-03-28T15:14:22.029Z,94883.44
2023-03-28T15:16:48.940Z,94879.16
2023-03-28T15:19:28.458Z,94883.94
2023-03-28T15:22:02.505Z,94878.41
2023-03-28T15:24:29.494Z,94866.41
2023-03-28T15:26:59.564Z,94868.09
2023-03-28T15:29:27.631Z,94861.66
2023-03-28T15:32:02.794Z,94868.19
2023-03-28T15:34:29.764Z,94856.97
2023-03-28T15:37:03.158Z,94863.41
2023-03-28T15:39:34.851Z,94852.25
2023-03-28T15:42:10.583Z,94855.13
2023-03-28T15:44:40.754Z,94842.78
2023-03-28T15:47:14.957Z,94843.66
2023-03-28T15:49:50.855Z,94841.97
2023-03-28T15:52:47.587Z,94835.44
2023-03-28T15:55:23.446Z,94849.00
2023-03-28T15:58:21.719Z,94850.88
2023-03-28T16:00:52.792Z,94846.69
2023-03-28T16:03:32.886Z,94847.91
2023-03-28T16:06:31.716Z,94842.25
2023-03-28T16:09:29.933Z,94834.34
2023-03-28T16:12:18.254Z,94840.19
2023-03-28T16:15:48.513Z,94831.28
2023-03-28T16:19:07.468Z,94838.28
2023-03-28T16:21:44.712Z,94844.72
2023-03-28T16:24:12.642Z,94833.47
2023-03-28T16:26:47.988Z,94827.63
2023-03-28T16:33:04.068Z,94833.81
2023-03-28T16:36:06.955Z,94828.50
2023-03-28T16:42:34.150Z,94820.19
2023-03-28T16:45:03.079Z,94824.75
2023-03-28T16:47:50.866Z,94829.88
2023-03-28T16:50:47.166Z,94828.66
2023-03-28T16:53:14.989Z,94824.88
2023-03-28T16:55:45.788Z,94822.72
2023-03-28T16:58:19.209Z,94815.00
2023-03-28T17:00:50.529Z,94815.34
2023-03-28T17:06:13.118Z,94809.31
2023-03-28T17:08:42.665Z,94799.44
2023-03-28T17:11:16.948Z,94794.16
2023-03-28T17:13:48.033Z,94798.69
2023-03-28T17:16:15.425Z,94806.59
2023-03-28T17:18:52.546Z,94801.63
2023-03-28T17:21:33.412Z,94799.75
2023-03-28T17:24:05.866Z,94795.31
2023-03-28T17:26:33.914Z,94784.31
2023-03-28T17:29:03.614Z,94796.63
2023-03-28T17:31:48.303Z,94790.81
2023-03-28T17:34:17.390Z,94792.56
2023-03-28T17:36:49.114Z,94792.06
2023-03-28T17:39:17.543Z,94774.72
2023-03-28T17:42:05.493Z,94774.16
2023-03-28T17:47:46.682Z,94762.78
2023-03-28T17:50:26.826Z,94755.72
2023-03-28T17:53:10.527Z,94757.91
2023-03-28T17:56:17.750Z,94756.34
2023-03-28T17:58:48.402Z,94751.66
2023-03-28T18:01:21.237Z,94763.91
2023-03-28T18:03:49.681Z,94754.91
2023-03-28T18:06:48.359Z,94759.19
2023-03-28T18:09:48.745Z,94757.66
2023-03-28T18:12:20.586Z,94748.75
2023-03-28T18:14:54.657Z,94743.38
2023-03-28T18:17:36.276Z,94747.66
2023-03-28T18:20:16.941Z,94749.03
2023-03-28T18:22:47.921Z,94748.28
2023-03-28T18:25:16.353Z,94756.22
2023-03-28T18:27:43.978Z,94753.09
2023-03-28T18:30:37.054Z,94764.75
2023-03-28T18:33:18.894Z,94761.03
2023-03-28T18:36:06.290Z,94757.50
2023-03-28T18:39:17.665Z,94763.16
2023-03-28T18:41:48.480Z,94767.13
2023-03-28T18:44:37.539Z,94761.03
2023-03-28T18:47:05.670Z,94751.06
2023-03-28T18:49:35.446Z,94761.72
2023-03-28T18:52:11.498Z,94750.34
2023-03-28T18:54:49.563Z,94752.16
2023-03-28T18:57:41.185Z,94745.25
2023-03-28T19:00:22.412Z,94738.84
2023-03-28T19:03:33.009Z,94735.47
2023-03-28T19:06:12.845Z,94743.16
2023-03-28T19:09:04.223Z,94736.81
2023-03-28T19:11:45.272Z,94723.56
2023-03-28T19:14:13.942Z,94730.31
2023-03-28T19:16:42.227Z,94725.28
2023-03-28T19:19:10.484Z,94721.31
2023-03-28T19:21:39.026Z,94716.28
2023-03-28T19:24:07.440Z,94703.03
2023-03-28T19:26:35.726Z,94700.91
2023-03-28T19:29:19.228Z,94701.41
2023-03-28T19:35:03.180Z,94699.34
2023-03-28T19:37:42.797Z,94704.41
2023-03-28T19:40:29.267Z,94711.56
2023-03-28T19:43:23.959Z,94699.16
2023-03-28T19:46:39.251Z,94710.69
2023-03-28T19:49:23.767Z,94708.31
2023-03-28T19:55:40.093Z,94716.16
2023-03-28T19:58:21.884Z,94709.19
2023-03-28T20:03:59.232Z,94710.22
2023-03-28T20:06:46.584Z,94704.69
2023-03-28T20:09:15.102Z,94694.19
2023-03-28T20:11:48.438Z,94705.03
2023-03-28T20:17:04.362Z,94713.16
2023-03-28T20:19:32.053Z,94715.53
2023-03-28T20:22:00.527Z,94711.59
2023-03-28T20:24:29.578Z,94713.69
2023-03-28T20:27:03.785Z,94710.56
2023-03-28T20:29:47.401Z,94702.31
2023-03-28T20:32:25.319Z,94693.81
2023-03-28T20:34:54.598Z,94700.84
2023-03-28T20:37:24.213Z,94694.22
2023-03-28T20:39:53.945Z,94693.38
2023-03-28T20:42:32.235Z,94692.03
2023-03-28T20:45:00.677Z,94694.00
2023-03-28T20:47:42.430Z,94696.38
2023-03-28T20:50:48.604Z,94682.53
2023-03-28T20:54:04.539Z,94682.28
2023-03-28T20:59:24.302Z,94675.97
2023-03-28T21:02:27.758Z,94681.75
2023-03-28T21:07:54.411Z,94656.28
2023-03-28T21:10:22.600Z,94655.25
2023-03-28T21:12:51.156Z,94660.03
2023-03-28T21:15:19.113Z,94656.00
2023-03-28T21:17:50.094Z,94640.41
2023-03-28T21:20:32.648Z,94639.84
2023-03-28T21:23:31.113Z,94648.81
2023-03-28T21:27:04.864Z,94665.47
2023-03-28T21:29:42.728Z,94672.28
2023-03-28T21:32:43.270Z,94658.00
2023-03-28T21:38:44.507Z,94665.22
2023-03-28T21:41:48.327Z,94650.34
2023-03-28T21:44:19.264Z,94648.53
2023-03-28T21:46:46.915Z,94649.22
2023-03-28T21:53:26.004Z,94648.59
2023-03-28T21:56:18.496Z,94656.56
2023-03-28T21:59:02.255Z,94664.03
2023-03-28T22:01:30.334Z,94667.47
2023-03-28T22:04:01.723Z,94677.31
2023-03-28T22:07:03.873Z,94687.44
2023-03-28T22:09:55.570Z,94689.53
2023-03-28T22:18:55.828Z,94653.66
2023-03-28T22:21:36.441Z,94634.22
2023-03-28T22:24:06.603Z,94616.69
2023-03-28T22:26:53.784Z,94627.81
2023-03-28T22:32:36.718Z,94607.34
2023-03-28T22:35:19.054Z,94594.84
2023-03-28T22:37:52.913Z,94607.56
2023-03-28T22:43:20.708Z,94624.94
2023-03-28T22:49:08.187Z,94653.53
2023-03-28T22:54:46.901Z,94630.69
2023-03-28T23:00:38.551Z,94627.25
2023-03-28T23:03:08.605Z,94623.28
2023-03-28T23:06:07.098Z,94623.78
2023-03-28T23:12:08.241Z,94642.50
2023-03-28T23:14:49.926Z,94657.31
2023-03-28T23:17:47.911Z,94642.63
2023-03-28T23:20:27.534Z,94639.31
2023-03-28T23:32:13.505Z,94635.53
2023-03-28T23:34:45.559Z,94656.41
2023-03-28T23:37:24.098Z,94665.00
2023-03-28T23:39:54.419Z,94662.47
2023-03-28T23:42:26.563Z,94670.75
2023-03-28T23:44:54.825Z,94669.47
2023-03-28T23:47:29.737Z,94656.13
2023-03-28T23:50:09.649Z,94652.19
2023-03-28T23:52:55.467Z,94641.66
2023-03-28T23:55:36.244Z,94640.63
2023-03-28T23:58:24.839Z,94643.81
